Terminal Aerodrome Forecast
Issued by NWS Omaha/Valley, NE

Home | Current Version | Previous Version | Text Only | Print | Product List | Glossary On
Versions: 1 2 3 4 5 6 7 8 9 10 11 12 13 14 15 16 17 18 19 20 21 22 23 24 25 26 27 28 29 30 31 32 33 34 35 36 37 38 39 40 41 42 43 44 45
000
FTUS43 KOAX 190031 AAA
TAFOMA
TAF AMD
KOMA 190031Z 1901/1924 14007KT P6SM BKN025 OVC070
     FM190400 16005KT 5SM BR SCT015 BKN070 PROB30 1910/1914 4SM
      -SHRA BKN025
     FM191400 33010KT P6SM OVC025 PROB30 1914/1917 4SM -SHRA
     FM191700 34017G25KT 6SM -SHRA BKN025 OVC040=

USA.gov is the U.S. government's official web portal to all federal, state and local government web resources and services.